createdAt,value
2024-05-09T00:01:57.379Z,25.05
2024-05-09T00:06:59.245Z,19.20
2024-05-09T00:12:03.886Z,18.42
2024-05-09T00:17:05.962Z,18.52
2024-05-09T00:22:10.043Z,18.50
2024-05-09T00:27:15.047Z,20.67
2024-05-09T00:32:21.672Z,20.50
2024-05-09T00:37:23.638Z,20.77
2024-05-09T00:42:27.570Z,20.25
2024-05-09T00:47:29.557Z,18.52
2024-05-09T00:52:34.420Z,20.23
2024-05-09T00:57:39.864Z,22.67
2024-05-09T01:02:41.921Z,22.15
2024-05-09T01:07:44.994Z,22.65
2024-05-09T01:12:46.931Z,24.83
2024-05-09T01:17:51.297Z,25.65
2024-05-09T01:22:54.207Z,28.27
2024-05-09T01:27:56.083Z,24.95
2024-05-09T01:33:01.354Z,28.65
2024-05-09T01:38:05.920Z,32.75
2024-05-09T01:43:12.039Z,30.92
2024-05-09T01:48:14.286Z,35.65
2024-05-09T01:53:16.321Z,29.65
2024-05-09T01:58:18.271Z,33.38
2024-05-09T02:03:21.484Z,29.50
2024-05-09T02:08:23.465Z,31.33
2024-05-09T02:13:25.370Z,28.98
2024-05-09T02:18:29.546Z,27.45
2024-05-09T02:23:34.504Z,35.80
2024-05-09T02:28:36.488Z,43.53
2024-05-09T02:33:42.739Z,33.30
2024-05-09T02:38:44.989Z,45.35
2024-05-09T02:43:46.925Z,34.63
2024-05-09T02:48:49.036Z,27.15
2024-05-09T02:53:53.472Z,41.17
2024-05-09T02:58:57.589Z,42.17
2024-05-09T03:04:01.762Z,36.38
2024-05-09T03:09:09.681Z,32.38
2024-05-09T03:14:17.320Z,34.67
2024-05-09T03:19:22.081Z,50.95
2024-05-09T03:24:26.802Z,35.42
2024-05-09T03:29:31.354Z,30.53
2024-05-09T03:34:33.705Z,35.97
2024-05-09T03:39:36.084Z,32.30
2024-05-09T03:44:38.769Z,31.70
2024-05-09T03:49:41.096Z,37.00
2024-05-09T03:54:48.880Z,29.63
2024-05-09T03:59:53.173Z,24.58
2024-05-09T04:04:57.618Z,32.30
2024-05-09T04:09:59.690Z,30.17
2024-05-09T04:15:04.372Z,30.40
2024-05-09T04:20:10.568Z,30.10
2024-05-09T04:25:12.869Z,32.00
2024-05-09T04:30:25.776Z,34.10
2024-05-09T04:35:38.253Z,35.47
2024-05-09T04:40:40.652Z,42.07
2024-05-09T04:45:42.926Z,37.97
2024-05-09T04:50:45.255Z,31.23
2024-05-09T04:55:47.298Z,33.53
2024-05-09T05:00:49.255Z,30.48
2024-05-09T05:05:51.654Z,37.47
2024-05-09T05:10:56.172Z,46.40
2024-05-09T05:15:58.687Z,45.65
2024-05-09T05:21:01.186Z,49.10
2024-05-09T05:26:03.211Z,43.30
2024-05-09T05:31:05.238Z,44.78
2024-05-09T05:36:07.810Z,43.83
2024-05-09T05:41:10.276Z,45.85
2024-05-09T05:46:12.180Z,39.85
2024-05-09T05:51:14.215Z,34.35
2024-05-09T05:56:16.424Z,37.30
2024-05-09T06:01:20.881Z,40.05
2024-05-09T06:06:22.917Z,37.20
2024-05-09T06:11:27.479Z,35.53
2024-05-09T06:16:29.405Z,34.35
2024-05-09T06:21:31.275Z,32.55
2024-05-09T06:26:33.592Z,28.65
2024-05-09T06:31:45.036Z,29.85
2024-05-09T06:36:47.722Z,26.02
2024-05-09T06:41:50.486Z,30.25
2024-05-09T06:46:58.185Z,29.17
2024-05-09T06:52:02.179Z,27.33
2024-05-09T06:57:08.029Z,27.38
2024-05-09T07:02:10.311Z,29.83
2024-05-09T07:07:14.953Z,26.52
2024-05-09T07:12:17.706Z,23.70
2024-05-09T07:17:20.544Z,24.58
2024-05-09T07:22:25.693Z,27.48
2024-05-09T07:27:32.610Z,24.80
2024-05-09T07:32:36.966Z,22.33
2024-05-09T07:37:41.051Z,23.10
2024-05-09T07:42:46.148Z,21.58
2024-05-09T07:49:13.244Z,22.48
2024-05-09T07:53:37.282Z,24.40
2024-05-09T07:58:35.195Z,24.55
2024-05-09T08:03:40.535Z,25.80
2024-05-09T08:08:43.159Z,24.05
2024-05-09T08:13:45.349Z,24.55
2024-05-09T08:18:47.764Z,19.95
2024-05-09T08:23:49.749Z,22.20
2024-05-09T08:28:56.809Z,17.33
2024-05-09T08:34:02.067Z,13.32
2024-05-09T08:39:04.338Z,18.80
2024-05-09T08:44:10.001Z,18.98
2024-05-09T08:49:12.462Z,18.58
2024-05-09T08:54:18.048Z,18.55
2024-05-09T08:59:27.973Z,16.92
2024-05-09T09:04:31.327Z,19.40
2024-05-09T09:09:35.727Z,16.40
2024-05-09T09:14:38.070Z,17.33
2024-05-09T09:19:46.334Z,17.05
2024-05-09T09:24:51.944Z,17.13
2024-05-09T09:29:56.909Z,14.65
2024-05-09T09:35:01.254Z,14.45
2024-05-09T09:40:04.642Z,17.75
2024-05-09T09:45:09.195Z,20.20
2024-05-09T09:50:20.357Z,16.88
2024-05-09T09:55:26.354Z,14.35
2024-05-09T10:00:33.251Z,15.80
2024-05-09T10:05:41.184Z,16.98
2024-05-09T10:10:51.236Z,20.17
2024-05-09T10:15:54.744Z,14.40
2024-05-09T10:20:56.811Z,15.20
2024-05-09T10:26:00.407Z,13.52
2024-05-09T10:31:09.632Z,15.93
2024-05-09T10:36:13.178Z,18.23
2024-05-09T10:41:40.583Z,14.05
2024-05-09T10:46:43.490Z,13.63
2024-05-09T10:51:48.755Z,16.90
2024-05-09T10:56:58.192Z,15.07
2024-05-09T11:02:08.635Z,30.10
2024-05-09T11:07:13.972Z,15.88
2024-05-09T11:12:16.023Z,15.25
2024-05-09T11:17:18.619Z,15.18
2024-05-09T11:22:25.362Z,13.18
2024-05-09T11:27:27.871Z,19.58
2024-05-09T11:32:30.682Z,14.13
2024-05-09T11:37:36.052Z,13.93
2024-05-09T11:42:47.737Z,30.77
2024-05-09T11:47:51.364Z,19.88
2024-05-09T11:52:58.413Z,15.85
2024-05-09T11:58:00.689Z,13.75
2024-05-09T12:03:06.321Z,23.17
2024-05-09T12:08:10.069Z,13.80
2024-05-09T12:13:12.061Z,14.68
2024-05-09T12:18:16.598Z,14.85
2024-05-09T12:23:21.732Z,37.35
2024-05-09T12:28:24.307Z,12.90
2024-05-09T12:33:27.422Z,11.75
2024-05-09T12:38:32.754Z,22.98
2024-05-09T12:43:35.628Z,13.60
2024-05-09T12:48:43.016Z,16.55
2024-05-09T12:53:45.665Z,10.40
2024-05-09T12:58:49.833Z,12.90
2024-05-09T13:03:54.874Z,13.65
2024-05-09T13:08:57.570Z,13.55
2024-05-09T13:13:59.781Z,12.18
2024-05-09T13:19:07.031Z,10.63
2024-05-09T13:24:11.542Z,11.25
2024-05-09T13:29:13.516Z,10.32
2024-05-09T13:34:16.043Z,10.50
2024-05-09T13:39:18.427Z,7.95
2024-05-09T13:44:20.714Z,9.15
2024-05-09T13:49:22.863Z,8.43
2024-05-09T13:54:28.219Z,6.57
2024-05-09T13:59:30.663Z,7.20
2024-05-09T14:04:35.251Z,6.70
2024-05-09T14:09:37.854Z,5.55
2024-05-09T14:14:42.720Z,5.85
2024-05-09T14:19:46.549Z,6.85
2024-05-09T14:24:49.399Z,7.28
2024-05-09T14:29:52.480Z,6.53
2024-05-09T14:34:54.718Z,7.03
2024-05-09T14:40:01.586Z,6.75
2024-05-09T14:45:06.451Z,6.25
2024-05-09T14:50:16.865Z,6.68
2024-05-09T14:55:45.947Z,7.07
2024-05-09T15:01:10.490Z,6.90
2024-05-09T15:06:35.029Z,7.13
2024-05-09T15:11:57.521Z,7.28
2024-05-09T15:17:22.206Z,8.73
2024-05-09T15:22:47.616Z,10.23
2024-05-09T15:27:52.168Z,9.43
2024-05-09T15:32:57.000Z,6.97
2024-05-09T15:38:03.598Z,7.55
2024-05-09T15:43:07.001Z,8.07
2024-05-09T15:48:10.409Z,8.40
2024-05-09T15:53:13.933Z,8.07
2024-05-09T15:58:16.385Z,6.07
2024-05-09T16:03:21.565Z,5.75
2024-05-09T16:08:24.162Z,9.18
2024-05-09T16:13:26.419Z,6.90
2024-05-09T16:18:29.261Z,9.88
2024-05-09T16:23:31.414Z,11.07
2024-05-09T16:28:33.972Z,7.18
2024-05-09T16:33:40.556Z,9.95
2024-05-09T16:38:45.612Z,12.50
2024-05-09T16:43:47.800Z,9.23
2024-05-09T16:48:52.885Z,8.40
2024-05-09T16:53:55.595Z,7.82
2024-05-09T16:58:57.619Z,9.35
2024-05-09T17:04:00.132Z,8.05
2024-05-09T17:09:08.619Z,10.57
2024-05-09T17:14:16.992Z,7.63
2024-05-09T17:19:19.441Z,7.63
2024-05-09T17:24:22.084Z,8.60
2024-05-09T17:29:28.545Z,7.67
2024-05-09T17:34:33.514Z,8.60
2024-05-09T17:39:35.757Z,9.57
2024-05-09T17:44:37.892Z,6.47
2024-05-09T17:49:40.321Z,9.68
2024-05-09T17:54:42.738Z,10.77
2024-05-09T17:59:44.918Z,5.72
2024-05-09T18:04:47.158Z,6.63
2024-05-09T18:09:49.338Z,5.90
2024-05-09T18:14:51.397Z,5.40
2024-05-09T18:19:53.907Z,7.60
2024-05-09T18:24:56.354Z,5.20
2024-05-09T18:29:58.838Z,4.90
2024-05-09T18:35:00.894Z,7.82
2024-05-09T18:40:03.376Z,6.50
2024-05-09T18:45:07.321Z,5.03
2024-05-09T18:50:17.560Z,5.18
2024-05-09T18:55:27.230Z,5.25
2024-05-09T19:00:37.542Z,6.45
2024-05-09T19:05:44.653Z,5.65
2024-05-09T19:10:52.936Z,7.43
2024-05-09T19:15:55.416Z,5.50
2024-05-09T19:20:59.890Z,4.50
2024-05-09T19:26:04.151Z,9.80
2024-05-09T19:31:06.109Z,4.97
2024-05-09T19:36:08.282Z,4.95
2024-05-09T19:41:10.205Z,7.90
2024-05-09T19:46:12.554Z,5.60
2024-05-09T19:51:19.454Z,8.10
2024-05-09T19:56:26.397Z,8.27
2024-05-09T20:01:32.815Z,9.07
2024-05-09T20:06:36.684Z,7.70
2024-05-09T20:11:41.178Z,7.32
2024-05-09T20:16:44.741Z,11.30
2024-05-09T20:21:46.694Z,7.60
2024-05-09T20:26:48.599Z,6.18
2024-05-09T20:31:50.456Z,7.55
2024-05-09T20:36:57.893Z,7.10
2024-05-09T20:42:02.192Z,7.43
2024-05-09T20:47:04.268Z,8.15
2024-05-09T20:52:06.384Z,8.23
2024-05-09T20:57:13.213Z,6.90
2024-05-09T21:02:15.686Z,7.47
2024-05-09T21:07:17.963Z,9.07
2024-05-09T21:12:19.862Z,7.53
2024-05-09T21:17:21.866Z,7.40
2024-05-09T21:22:23.815Z,7.07
2024-05-09T21:27:25.836Z,7.53
2024-05-09T21:32:30.433Z,7.60
2024-05-09T21:37:32.474Z,7.00
2024-05-09T21:42:36.894Z,7.43
2024-05-09T21:47:41.136Z,8.00
2024-05-09T21:52:43.072Z,9.77
2024-05-09T21:57:44.921Z,8.05
2024-05-09T22:02:50.138Z,10.85
2024-05-09T22:07:54.119Z,9.75
2024-05-09T22:12:59.233Z,9.73
2024-05-09T22:18:01.285Z,18.92
2024-05-09T22:23:04.581Z,25.67
2024-05-09T22:28:07.423Z,25.42
2024-05-09T22:33:11.999Z,26.27
2024-05-09T22:38:14.807Z,25.45
2024-05-09T22:43:19.257Z,18.90
2024-05-09T22:48:21.665Z,11.10
2024-05-09T22:53:26.453Z,12.55
2024-05-09T22:58:30.618Z,12.20
2024-05-09T23:03:35.607Z,11.77
2024-05-09T23:08:37.645Z,12.32
2024-05-09T23:13:41.747Z,11.35
2024-05-09T23:18:43.798Z,12.93
2024-05-09T23:23:47.963Z,15.70
2024-05-09T23:28:52.020Z,12.30
2024-05-09T23:33:57.013Z,11.93
2024-05-09T23:38:59.177Z,13.73
2024-05-09T23:44:01.001Z,11.63
2024-05-09T23:49:03.093Z,11.75
2024-05-09T23:54:08.616Z,15.82
2024-05-09T23:59:10.485Z,17.23
